sensor_id;sensor_type;location;lat;lon;timestamp;pressure;altitude;pressure_sealevel;temperature;humidity
32759;BME280;19125;52.360;9.974;2023-06-26T00:01:29;86344.03;;;-145.17;56.51
32759;BME280;19125;52.360;9.974;2023-06-26T00:03:55;86361.88;;;-145.17;56.72
32759;BME280;19125;52.360;9.974;2023-06-26T00:06:20;86286.47;;;-145.17;56.52
32759;BME280;19125;52.360;9.974;2023-06-26T00:08:46;86330.13;;;-145.17;56.41
32759;BME280;19125;52.360;9.974;2023-06-26T00:11:11;86318.22;;;-145.17;56.65
32759;BME280;19125;52.360;9.974;2023-06-26T00:13:37;86334.09;;;-145.17;56.56
32759;BME280;19125;52.360;9.974;2023-06-26T00:16:02;86385.69;;;-145.17;56.76
32759;BME280;19125;52.360;9.974;2023-06-26T00:18:28;86351.97;;;-145.17;56.79
32759;BME280;19125;52.360;9.974;2023-06-26T00:20:54;86399.59;;;-145.17;57.14
32759;BME280;19125;52.360;9.974;2023-06-26T00:23:19;86421.41;;;-145.17;57.24
32759;BME280;19125;52.360;9.974;2023-06-26T00:25:45;86437.28;;;-145.17;57.33
32759;BME280;19125;52.360;9.974;2023-06-26T00:28:10;86421.41;;;-145.17;57.23
32759;BME280;19125;52.360;9.974;2023-06-26T00:30:35;86459.13;;;-145.17;57.33
32759;BME280;19125;52.360;9.974;2023-06-26T00:33:01;86451.19;;;-145.17;57.42
32759;BME280;19125;52.360;9.974;2023-06-26T00:35:26;86437.28;;;-145.17;57.56
32759;BME280;19125;52.360;9.974;2023-06-26T00:37:52;86429.34;;;-145.17;57.43
32759;BME280;19125;52.360;9.974;2023-06-26T00:40:17;86449.19;;;-145.17;57.34
32759;BME280;19125;52.360;9.974;2023-06-26T00:42:43;86477.00;;;-145.17;57.68
32759;BME280;19125;52.360;9.974;2023-06-26T00:45:08;86502.78;;;-145.17;57.88
32759;BME280;19125;52.360;9.974;2023-06-26T00:47:33;86564.31;;;-145.17;58.13
32759;BME280;19125;52.360;9.974;2023-06-26T00:49:59;86574.22;;;-145.17;58.29
32759;BME280;19125;52.360;9.974;2023-06-26T00:52:25;86574.22;;;-145.17;58.26
32759;BME280;19125;52.360;9.974;2023-06-26T00:54:50;86607.97;;;-145.17;58.59
32759;BME280;19125;52.360;9.974;2023-06-26T00:57:17;86647.66;;;-145.17;58.87
32759;BME280;19125;52.360;9.974;2023-06-26T00:59:42;86671.47;;;-145.17;59.06
32759;BME280;19125;52.360;9.974;2023-06-26T01:02:08;86709.19;;;-145.17;59.42
32759;BME280;19125;52.360;9.974;2023-06-26T01:04:34;86754.84;;;-145.17;59.56
32759;BME280;19125;52.360;9.974;2023-06-26T01:07:01;86754.84;;;-145.17;59.72
32759;BME280;19125;52.360;9.974;2023-06-26T01:09:27;86814.38;;;-145.17;59.98
32759;BME280;19125;52.360;9.974;2023-06-26T01:11:54;86766.75;;;-145.17;59.93
32759;BME280;19125;52.360;9.974;2023-06-26T01:14:20;86782.63;;;-145.17;60.03
32759;BME280;19125;52.360;9.974;2023-06-26T01:16:46;86812.38;;;-145.17;60.20
32759;BME280;19125;52.360;9.974;2023-06-26T01:19:38;86810.41;;;-145.17;60.29
32759;BME280;19125;52.360;9.974;2023-06-26T01:22:09;86806.44;;;-145.17;60.12
32759;BME280;19125;52.360;9.974;2023-06-26T01:24:44;86772.69;;;-145.17;60.34
32759;BME280;19125;52.360;9.974;2023-06-26T01:27:10;86792.53;;;-145.17;60.45
32759;BME280;19125;52.360;9.974;2023-06-26T01:29:37;86774.69;;;-145.17;60.41
32759;BME280;19125;52.360;9.974;2023-06-26T01:32:04;86788.56;;;-145.17;60.40
32759;BME280;19125;52.360;9.974;2023-06-26T01:34:30;86756.81;;;-145.17;60.21
32759;BME280;19125;52.360;9.974;2023-06-26T01:36:55;86814.38;;;-145.17;60.07
32759;BME280;19125;52.360;9.974;2023-06-26T01:39:21;86713.16;;;-145.17;60.05
32759;BME280;19125;52.360;9.974;2023-06-26T01:41:46;86778.66;;;-145.17;60.07
32759;BME280;19125;52.360;9.974;2023-06-26T01:44:23;86782.63;;;-145.17;60.41
32759;BME280;19125;52.360;9.974;2023-06-26T01:47:01;86788.56;;;-145.17;60.47
32759;BME280;19125;52.360;9.974;2023-06-26T01:57:16;86762.78;;;-145.17;61.30
32759;BME280;19125;52.360;9.974;2023-06-26T01:59:44;86804.44;;;-145.17;61.06
32759;BME280;19125;52.360;9.974;2023-06-26T02:02:11;86798.50;;;-145.17;61.16
32759;BME280;19125;52.360;9.974;2023-06-26T02:04:36;86770.72;;;-145.17;61.01
32759;BME280;19125;52.360;9.974;2023-06-26T02:07:02;86802.47;;;-145.17;61.05
32759;BME280;19125;52.360;9.974;2023-06-26T02:09:28;86812.38;;;-145.17;60.85
32759;BME280;19125;52.360;9.974;2023-06-26T02:11:53;86764.75;;;-145.17;61.00
32759;BME280;19125;52.360;9.974;2023-06-26T02:14:18;86788.56;;;-145.17;60.70
32759;BME280;19125;52.360;9.974;2023-06-26T02:16:44;86804.44;;;-145.17;60.72
32759;BME280;19125;52.360;9.974;2023-06-26T02:19:09;86806.44;;;-145.17;60.77
32759;BME280;19125;52.360;9.974;2023-06-26T02:21:34;86800.47;;;-145.17;60.73
32759;BME280;19125;52.360;9.974;2023-06-26T02:24:01;86774.69;;;-145.17;60.54
32759;BME280;19125;52.360;9.974;2023-06-26T02:26:26;86794.53;;;-145.17;60.64
32759;BME280;19125;52.360;9.974;2023-06-26T02:28:51;86796.50;;;-145.17;60.84
32759;BME280;19125;52.360;9.974;2023-06-26T02:31:17;86838.19;;;-145.17;61.10
32759;BME280;19125;52.360;9.974;2023-06-26T02:33:42;86838.19;;;-145.17;61.04
32759;BME280;19125;52.360;9.974;2023-06-26T02:36:07;86822.31;;;-145.17;61.49
32759;BME280;19125;52.360;9.974;2023-06-26T02:38:33;86856.06;;;-145.17;61.45
32759;BME280;19125;52.360;9.974;2023-06-26T02:40:58;86790.56;;;-145.17;61.63
32759;BME280;19125;52.360;9.974;2023-06-26T02:43:23;86814.38;;;-145.17;61.71
32759;BME280;19125;52.360;9.974;2023-06-26T02:45:49;86822.31;;;-145.17;61.70
32759;BME280;19125;52.360;9.974;2023-06-26T02:48:14;86784.59;;;-145.17;61.96
32759;BME280;19125;52.360;9.974;2023-06-26T02:50:39;86804.44;;;-145.17;61.80
32759;BME280;19125;52.360;9.974;2023-06-26T02:53:05;86800.47;;;-145.17;61.84
32759;BME280;19125;52.360;9.974;2023-06-26T02:55:30;86808.41;;;-145.17;61.62
32759;BME280;19125;52.360;9.974;2023-06-26T02:57:55;86818.34;;;-145.17;61.70
32759;BME280;19125;52.360;9.974;2023-06-26T03:00:21;86830.25;;;-145.17;61.48
32759;BME280;19125;52.360;9.974;2023-06-26T03:02:46;86850.09;;;-145.17;61.37
32759;BME280;19125;52.360;9.974;2023-06-26T03:05:11;86885.81;;;-145.17;61.39
32759;BME280;19125;52.360;9.974;2023-06-26T03:07:38;86834.22;;;-145.17;61.36
32759;BME280;19125;52.360;9.974;2023-06-26T03:10:04;86822.31;;;-145.17;61.50
32759;BME280;19125;52.360;9.974;2023-06-26T03:12:30;86816.34;;;-145.17;61.51
32759;BME280;19125;52.360;9.974;2023-06-26T03:14:56;86818.34;;;-145.17;61.43
32759;BME280;19125;52.360;9.974;2023-06-26T03:17:21;86850.09;;;-145.17;61.35
32759;BME280;19125;52.360;9.974;2023-06-26T03:19:46;86838.19;;;-145.17;61.32
32759;BME280;19125;52.360;9.974;2023-06-26T03:22:11;86794.53;;;-145.17;61.18
32759;BME280;19125;52.360;9.974;2023-06-26T03:24:37;86758.81;;;-145.17;60.99
32759;BME280;19125;52.360;9.974;2023-06-26T03:27:02;86717.13;;;-145.17;60.31
32759;BME280;19125;52.360;9.974;2023-06-26T03:29:28;86613.91;;;-145.17;59.48
32759;BME280;19125;52.360;9.974;2023-06-26T03:31:55;86500.81;;;-145.17;58.61
32759;BME280;19125;52.360;9.974;2023-06-26T03:34:20;86346.00;;;-145.17;56.92
32759;BME280;19125;52.360;9.974;2023-06-26T03:36:46;86092.00;;;-145.17;55.81
32759;BME280;19125;52.360;9.974;2023-06-26T03:39:11;85921.34;;;-145.17;54.67
32759;BME280;19125;52.360;9.974;2023-06-26T03:41:37;85717.00;;;-145.17;52.97
32759;BME280;19125;52.360;9.974;2023-06-26T03:44:02;85447.16;;;-145.17;51.23
32759;BME280;19125;52.360;9.974;2023-06-26T03:46:30;85284.47;;;-145.17;49.76
32759;BME280;19125;52.360;9.974;2023-06-26T03:48:56;85129.72;;;-145.17;49.07
32759;BME280;19125;52.360;9.974;2023-06-26T03:51:21;85046.41;;;-145.17;48.15
32759;BME280;19125;52.360;9.974;2023-06-26T03:53:46;84963.09;;;-145.17;47.23
32759;BME280;19125;52.360;9.974;2023-06-26T03:56:12;84832.16;;;-145.17;46.61
32759;BME280;19125;52.360;9.974;2023-06-26T03:58:39;84770.66;;;-145.17;45.84
32759;BME280;19125;52.360;9.974;2023-06-26T04:01:04;84705.19;;;-145.17;44.94
32759;BME280;19125;52.360;9.974;2023-06-26T04:03:30;84602.03;;;-145.17;44.35
32759;BME280;19125;52.360;9.974;2023-06-26T04:05:56;84506.84;;;-145.17;43.24
32759;BME280;19125;52.360;9.974;2023-06-26T04:08:23;84506.84;;;-145.17;42.87
32759;BME280;19125;52.360;9.974;2023-06-26T04:10:51;84433.44;;;-145.17;41.79
32759;BME280;19125;52.360;9.974;2023-06-26T04:13:17;84358.06;;;-145.17;41.28
32759;BME280;19125;52.360;9.974;2023-06-26T04:15:42;84336.25;;;-145.17;40.95
32759;BME280;19125;52.360;9.974;2023-06-26T04:18:07;84278.72;;;-145.17;40.47
32759;BME280;19125;52.360;9.974;2023-06-26T04:20:39;84211.28;;;-145.17;39.65
32759;BME280;19125;52.360;9.974;2023-06-26T04:23:04;84187.50;;;-145.17;39.05
32759;BME280;19125;52.360;9.974;2023-06-26T04:25:30;84155.75;;;-145.17;39.01
32759;BME280;19125;52.360;9.974;2023-06-26T04:27:55;84157.75;;;-145.17;38.90
32759;BME280;19125;52.360;9.974;2023-06-26T04:30:20;84088.31;;;-145.17;38.80
32759;BME280;19125;52.360;9.974;2023-06-26T04:32:46;84147.81;;;-145.17;38.75
32759;BME280;19125;52.360;9.974;2023-06-26T04:35:11;84135.94;;;-145.17;38.53
32759;BME280;19125;52.360;9.974;2023-06-26T04:37:36;84143.88;;;-145.17;38.67
32759;BME280;19125;52.360;9.974;2023-06-26T04:40:02;84209.31;;;-145.17;39.42
32759;BME280;19125;52.360;9.974;2023-06-26T04:42:29;84328.31;;;-145.17;40.46
32759;BME280;19125;52.360;9.974;2023-06-26T04:44:54;84405.69;;;-145.17;41.17
32759;BME280;19125;52.360;9.974;2023-06-26T04:47:20;84514.78;;;-145.17;42.29
32759;BME280;19125;52.360;9.974;2023-06-26T04:49:45;84641.72;;;-145.17;43.45
32759;BME280;19125;52.360;9.974;2023-06-26T04:52:13;84675.44;;;-145.17;44.23
32759;BME280;19125;52.360;9.974;2023-06-26T04:54:39;84738.91;;;-145.17;45.07
32759;BME280;19125;52.360;9.974;2023-06-26T04:57:04;84836.13;;;-145.17;46.21
32759;BME280;19125;52.360;9.974;2023-06-26T04:59:30;84861.91;;;-145.17;46.64
32759;BME280;19125;52.360;9.974;2023-06-26T05:05:18;84933.31;;;-145.17;48.01
32759;BME280;19125;52.360;9.974;2023-06-26T05:07:43;85016.66;;;-145.17;48.55
32759;BME280;19125;52.360;9.974;2023-06-26T05:10:11;84996.81;;;-145.17;48.62
32759;BME280;19125;52.360;9.974;2023-06-26T05:12:37;85038.47;;;-145.17;49.26
32759;BME280;19125;52.360;9.974;2023-06-26T05:15:02;85044.41;;;-145.17;49.60
32759;BME280;19125;52.360;9.974;2023-06-26T05:17:28;85056.31;;;-145.17;49.54
32759;BME280;19125;52.360;9.974;2023-06-26T05:19:53;84971.00;;;-145.17;49.40
32759;BME280;19125;52.360;9.974;2023-06-26T05:22:19;84895.63;;;-145.17;48.93
32759;BME280;19125;52.360;9.974;2023-06-26T05:24:46;84885.72;;;-145.17;48.47
32759;BME280;19125;52.360;9.974;2023-06-26T05:27:12;84848.03;;;-145.17;48.08
32759;BME280;19125;52.360;9.974;2023-06-26T05:29:46;84826.19;;;-145.17;48.18
32759;BME280;19125;52.360;9.974;2023-06-26T05:32:13;84754.78;;;-145.17;48.05
32759;BME280;19125;52.360;9.974;2023-06-26T05:34:41;84701.22;;;-145.17;47.86
32759;BME280;19125;52.360;9.974;2023-06-26T05:37:07;84750.81;;;-145.17;47.79
32759;BME280;19125;52.360;9.974;2023-06-26T05:39:33;84701.22;;;-145.17;47.36
32759;BME280;19125;52.360;9.974;2023-06-26T05:41:58;84596.09;;;-145.17;46.74
32759;BME280;19125;52.360;9.974;2023-06-26T05:44:24;84608.00;;;-145.17;45.93
32759;BME280;19125;52.360;9.974;2023-06-26T05:46:49;84504.84;;;-145.17;45.15
32759;BME280;19125;52.360;9.974;2023-06-26T05:49:14;84419.56;;;-145.17;44.38
32759;BME280;19125;52.360;9.974;2023-06-26T05:51:40;84409.66;;;-145.17;43.73
32759;BME280;19125;52.360;9.974;2023-06-26T05:54:05;84346.19;;;-145.17;42.96
32759;BME280;19125;52.360;9.974;2023-06-26T05:56:32;84306.50;;;-145.17;42.33
32759;BME280;19125;52.360;9.974;2023-06-26T05:58:58;84294.59;;;-145.17;42.32
32759;BME280;19125;52.360;9.974;2023-06-26T06:01:27;84304.53;;;-145.17;42.19
32759;BME280;19125;52.360;9.974;2023-06-26T06:03:52;84207.34;;;-145.17;41.74
32759;BME280;19125;52.360;9.974;2023-06-26T06:06:17;84199.41;;;-145.17;41.54
32759;BME280;19125;52.360;9.974;2023-06-26T06:08:43;84197.41;;;-145.17;41.48
32759;BME280;19125;52.360;9.974;2023-06-26T06:11:08;84203.38;;;-145.17;41.14
32759;BME280;19125;52.360;9.974;2023-06-26T06:13:33;84149.81;;;-145.17;41.31
32759;BME280;19125;52.360;9.974;2023-06-26T06:15:59;84070.47;;;-145.17;40.29
32759;BME280;19125;52.360;9.974;2023-06-26T06:18:24;84056.59;;;-145.17;40.68
32759;BME280;19125;52.360;9.974;2023-06-26T06:20:49;83995.13;;;-145.17;40.23
32759;BME280;19125;52.360;9.974;2023-06-26T06:23:15;84022.88;;;-145.17;39.47
32759;BME280;19125;52.360;9.974;2023-06-26T06:25:40;84042.72;;;-145.17;39.66
32759;BME280;19125;52.360;9.974;2023-06-26T06:28:05;84052.63;;;-145.17;39.09
32759;BME280;19125;52.360;9.974;2023-06-26T06:30:31;83977.25;;;-145.17;38.52
32759;BME280;19125;52.360;9.974;2023-06-26T06:32:57;83947.50;;;-145.17;38.18
32759;BME280;19125;52.360;9.974;2023-06-26T06:35:23;83903.88;;;-145.17;38.02
32759;BME280;19125;52.360;9.974;2023-06-26T06:37:48;83903.88;;;-145.17;37.82
32759;BME280;19125;52.360;9.974;2023-06-26T06:40:14;83884.06;;;-145.17;37.82
32759;BME280;19125;52.360;9.974;2023-06-26T06:42:40;83802.75;;;-145.17;36.96
32759;BME280;19125;52.360;9.974;2023-06-26T06:45:05;83828.53;;;-145.17;36.51
32759;BME280;19125;52.360;9.974;2023-06-26T06:47:32;83794.81;;;-145.17;36.38
32759;BME280;19125;52.360;9.974;2023-06-26T06:49:58;83790.84;;;-145.17;36.21
32759;BME280;19125;52.360;9.974;2023-06-26T06:52:24;83747.22;;;-145.17;35.99
32759;BME280;19125;52.360;9.974;2023-06-26T06:54:59;83723.41;;;-145.17;35.14
32759;BME280;19125;52.360;9.974;2023-06-26T06:57:25;83667.88;;;-145.17;35.16
32759;BME280;19125;52.360;9.974;2023-06-26T06:59:50;83604.41;;;-145.17;34.56
32759;BME280;19125;52.360;9.974;2023-06-26T07:02:19;83644.09;;;-145.17;33.91
32759;BME280;19125;52.360;9.974;2023-06-26T07:04:45;83626.25;;;-145.17;33.95
32759;BME280;19125;52.360;9.974;2023-06-26T07:07:11;83667.88;;;-145.17;34.28
32759;BME280;19125;52.360;9.974;2023-06-26T07:09:38;83652.03;;;-145.17;34.45
32759;BME280;19125;52.360;9.974;2023-06-26T07:12:04;83701.59;;;-145.17;34.32
32759;BME280;19125;52.360;9.974;2023-06-26T07:14:30;83709.53;;;-145.17;33.62
32759;BME280;19125;52.360;9.974;2023-06-26T07:16:55;83701.59;;;-145.17;33.60
32759;BME280;19125;52.360;9.974;2023-06-26T07:19:20;83667.88;;;-145.17;33.12
32759;BME280;19125;52.360;9.974;2023-06-26T07:21:46;83665.91;;;-145.17;32.95
32759;BME280;19125;52.360;9.974;2023-06-26T07:24:12;83721.44;;;-145.17;33.42
32759;BME280;19125;52.360;9.974;2023-06-26T07:26:37;83661.94;;;-145.17;33.45
32759;BME280;19125;52.360;9.974;2023-06-26T07:29:03;83620.28;;;-145.17;33.65
32759;BME280;19125;52.360;9.974;2023-06-26T07:31:29;83620.28;;;-145.17;33.16
32759;BME280;19125;52.360;9.974;2023-06-26T07:33:54;83608.38;;;-145.17;33.64
32759;BME280;19125;52.360;9.974;2023-06-26T07:36:19;83606.41;;;-145.17;33.09
32759;BME280;19125;52.360;9.974;2023-06-26T07:38:45;83598.47;;;-145.17;33.03
32759;BME280;19125;52.360;9.974;2023-06-26T07:41:10;83646.06;;;-145.17;32.86
32759;BME280;19125;52.360;9.974;2023-06-26T07:43:36;83588.56;;;-145.17;32.69
32759;BME280;19125;52.360;9.974;2023-06-26T07:46:01;83624.25;;;-145.17;32.83
32759;BME280;19125;52.360;9.974;2023-06-26T07:48:26;83570.72;;;-145.17;32.66
32759;BME280;19125;52.360;9.974;2023-06-26T07:50:52;83542.94;;;-145.17;33.43
32759;BME280;19125;52.360;9.974;2023-06-26T07:53:18;83540.97;;;-145.17;32.50
32759;BME280;19125;52.360;9.974;2023-06-26T07:55:43;83552.88;;;-145.17;32.51
32759;BME280;19125;52.360;9.974;2023-06-26T07:58:08;83540.97;;;-145.17;32.82
32759;BME280;19125;52.360;9.974;2023-06-26T08:00:35;83523.13;;;-145.17;33.45
32759;BME280;19125;52.360;9.974;2023-06-26T08:03:00;83489.41;;;-145.17;33.18
32759;BME280;19125;52.360;9.974;2023-06-26T08:05:26;83429.91;;;-145.17;33.29
32759;BME280;19125;52.360;9.974;2023-06-26T08:07:51;83418.00;;;-145.17;32.64
32759;BME280;19125;52.360;9.974;2023-06-26T08:10:16;83445.78;;;-145.17;32.69
32759;BME280;19125;52.360;9.974;2023-06-26T08:12:42;83404.13;;;-145.17;32.63
32759;BME280;19125;52.360;9.974;2023-06-26T08:15:10;83429.91;;;-145.17;33.06
32759;BME280;19125;52.360;9.974;2023-06-26T08:17:37;83372.41;;;-145.17;32.61
32759;BME280;19125;52.360;9.974;2023-06-26T08:20:03;83412.06;;;-145.17;32.36
32759;BME280;19125;52.360;9.974;2023-06-26T08:22:29;83346.63;;;-145.17;32.99
32759;BME280;19125;52.360;9.974;2023-06-26T08:24:54;83340.69;;;-145.17;32.79
32759;BME280;19125;52.360;9.974;2023-06-26T08:27:19;83346.63;;;-145.17;31.98
32759;BME280;19125;52.360;9.974;2023-06-26T08:29:45;83295.06;;;-145.17;31.64
32759;BME280;19125;52.360;9.974;2023-06-26T08:32:10;83342.66;;;-145.17;31.72
32759;BME280;19125;52.360;9.974;2023-06-26T08:34:35;83370.41;;;-145.17;31.82
32759;BME280;19125;52.360;9.974;2023-06-26T08:37:01;83340.69;;;-145.17;31.63
32759;BME280;19125;52.360;9.974;2023-06-26T08:39:26;83320.84;;;-145.17;31.36
32759;BME280;19125;52.360;9.974;2023-06-26T08:41:52;83306.97;;;-145.17;31.17
32759;BME280;19125;52.360;9.974;2023-06-26T08:44:17;83289.13;;;-145.17;31.50
32759;BME280;19125;52.360;9.974;2023-06-26T08:46:43;83263.34;;;-145.17;30.89
32759;BME280;19125;52.360;9.974;2023-06-26T08:49:14;83219.72;;;-145.17;31.08
32759;BME280;19125;52.360;9.974;2023-06-26T08:51:45;83211.78;;;-145.17;31.01
32759;BME280;19125;52.360;9.974;2023-06-26T08:54:15;83211.78;;;-145.17;31.27
32759;BME280;19125;52.360;9.974;2023-06-26T08:56:43;83189.97;;;-145.17;30.64
32759;BME280;19125;52.360;9.974;2023-06-26T08:59:10;83189.97;;;-145.17;30.41
32759;BME280;19125;52.360;9.974;2023-06-26T09:01:36;83168.16;;;-145.17;30.27
32759;BME280;19125;52.360;9.974;2023-06-26T09:04:01;83148.34;;;-145.17;30.70
32759;BME280;19125;52.360;9.974;2023-06-26T09:06:27;83152.31;;;-145.17;30.80
32759;BME280;19125;52.360;9.974;2023-06-26T09:08:52;83188.00;;;-145.17;31.38
32759;BME280;19125;52.360;9.974;2023-06-26T09:11:18;83249.47;;;-145.17;30.89
32759;BME280;19125;52.360;9.974;2023-06-26T09:13:43;83267.31;;;-145.17;31.73
32759;BME280;19125;52.360;9.974;2023-06-26T09:16:09;83267.31;;;-145.17;32.17
32759;BME280;19125;52.360;9.974;2023-06-26T09:18:34;83188.00;;;-145.17;31.12
32759;BME280;19125;52.360;9.974;2023-06-26T09:21:07;83203.84;;;-145.17;31.10
32759;BME280;19125;52.360;9.974;2023-06-26T09:23:33;83239.53;;;-145.17;31.21
32759;BME280;19125;52.360;9.974;2023-06-26T09:25:59;83215.75;;;-145.17;31.43
32759;BME280;19125;52.360;9.974;2023-06-26T09:28:26;83231.63;;;-145.17;31.04
32759;BME280;19125;52.360;9.974;2023-06-26T09:30:52;83207.81;;;-145.17;31.45
32759;BME280;19125;52.360;9.974;2023-06-26T09:33:18;83186.00;;;-145.17;31.55
32759;BME280;19125;52.360;9.974;2023-06-26T09:35:45;83188.00;;;-145.17;31.29
32759;BME280;19125;52.360;9.974;2023-06-26T09:38:14;83191.97;;;-145.17;31.25
32759;BME280;19125;52.360;9.974;2023-06-26T09:40:40;83150.31;;;-145.17;31.09
32759;BME280;19125;52.360;9.974;2023-06-26T09:43:06;83172.13;;;-145.17;31.18
32759;BME280;19125;52.360;9.974;2023-06-26T09:45:35;83231.63;;;-145.17;31.48
32759;BME280;19125;52.360;9.974;2023-06-26T09:48:04;83287.13;;;-145.17;31.40
32759;BME280;19125;52.360;9.974;2023-06-26T09:50:32;83374.38;;;-145.17;31.52
32759;BME280;19125;52.360;9.974;2023-06-26T09:53:07;83433.88;;;-145.17;31.66
32759;BME280;19125;52.360;9.974;2023-06-26T09:55:34;83475.53;;;-145.17;32.34
32759;BME280;19125;52.360;9.974;2023-06-26T09:58:02;83485.44;;;-145.17;31.86
32759;BME280;19125;52.360;9.974;2023-06-26T10:00:28;83457.69;;;-145.17;32.43
32759;BME280;19125;52.360;9.974;2023-06-26T10:02:53;83491.38;;;-145.17;32.43
32759;BME280;19125;52.360;9.974;2023-06-26T10:05:19;83582.59;;;-145.17;32.86
32759;BME280;19125;52.360;9.974;2023-06-26T10:07:45;83602.44;;;-145.17;33.21
32759;BME280;19125;52.360;9.974;2023-06-26T10:10:12;83600.47;;;-145.17;33.47
32759;BME280;19125;52.360;9.974;2023-06-26T10:12:37;83683.75;;;-145.17;33.81
32759;BME280;19125;52.360;9.974;2023-06-26T10:15:03;83759.09;;;-145.17;34.33
32759;BME280;19125;52.360;9.974;2023-06-26T10:17:34;83778.94;;;-145.17;34.25
32759;BME280;19125;52.360;9.974;2023-06-26T10:20:01;83776.97;;;-145.17;34.82
32759;BME280;19125;52.360;9.974;2023-06-26T10:22:29;83731.34;;;-145.17;35.30
32759;BME280;19125;52.360;9.974;2023-06-26T10:24:59;83691.69;;;-145.17;34.78
32759;BME280;19125;52.360;9.974;2023-06-26T10:27:34;83525.09;;;-145.17;34.09
32759;BME280;19125;52.360;9.974;2023-06-26T10:30:03;83473.53;;;-145.17;33.84
32759;BME280;19125;52.360;9.974;2023-06-26T10:32:30;83521.13;;;-145.17;34.13
32759;BME280;19125;52.360;9.974;2023-06-26T10:34:57;83517.16;;;-145.17;34.50
32759;BME280;19125;52.360;9.974;2023-06-26T10:40:09;83659.94;;;-145.17;35.92
32759;BME280;19125;52.360;9.974;2023-06-26T10:42:36;83814.63;;;-145.17;36.49
32759;BME280;19125;52.360;9.974;2023-06-26T10:45:23;83921.72;;;-145.17;37.33
32759;BME280;19125;52.360;9.974;2023-06-26T10:47:53;83961.41;;;-145.17;37.93
32759;BME280;19125;52.360;9.974;2023-06-26T10:53:07;84239.06;;;-145.17;42.51
32759;BME280;19125;52.360;9.974;2023-06-26T10:55:33;84540.56;;;-145.17;45.88
32759;BME280;19125;52.360;9.974;2023-06-26T10:57:58;84665.53;;;-145.17;47.11
32759;BME280;19125;52.360;9.974;2023-06-26T11:00:24;84774.63;;;-145.17;48.06
32759;BME280;19125;52.360;9.974;2023-06-26T11:02:50;84853.97;;;-145.17;49.13
32759;BME280;19125;52.360;9.974;2023-06-26T11:05:28;84867.84;;;-145.17;49.26
32759;BME280;19125;52.360;9.974;2023-06-26T11:08:08;84834.13;;;-145.17;48.81
32759;BME280;19125;52.360;9.974;2023-06-26T11:10:53;84873.81;;;-145.17;49.37
32759;BME280;19125;52.360;9.974;2023-06-26T11:13:20;84774.63;;;-145.17;48.91
32759;BME280;19125;52.360;9.974;2023-06-26T11:15:46;84738.91;;;-145.17;48.25
32759;BME280;19125;52.360;9.974;2023-06-26T11:18:12;84675.44;;;-145.17;48.35
32759;BME280;19125;52.360;9.974;2023-06-26T11:20:38;84596.09;;;-145.17;47.48
32759;BME280;19125;52.360;9.974;2023-06-26T11:23:04;84475.09;;;-145.17;47.16
32759;BME280;19125;52.360;9.974;2023-06-26T11:25:37;84449.31;;;-145.17;45.84
32759;BME280;19125;52.360;9.974;2023-06-26T11:28:04;84320.38;;;-145.17;45.98
32759;BME280;19125;52.360;9.974;2023-06-26T11:30:31;84302.53;;;-145.17;45.15
32759;BME280;19125;52.360;9.974;2023-06-26T11:33:07;84306.50;;;-145.17;44.85
32759;BME280;19125;52.360;9.974;2023-06-26T11:35:32;84320.38;;;-145.17;44.05
32759;BME280;19125;52.360;9.974;2023-06-26T11:37:59;84314.44;;;-145.17;44.67
32759;BME280;19125;52.360;9.974;2023-06-26T11:40:29;84338.25;;;-145.17;44.66
32759;BME280;19125;52.360;9.974;2023-06-26T11:42:58;84350.13;;;-145.17;44.91
32759;BME280;19125;52.360;9.974;2023-06-26T11:45:24;84387.81;;;-145.17;44.84
32759;BME280;19125;52.360;9.974;2023-06-26T11:47:49;84330.31;;;-145.17;44.02
32759;BME280;19125;52.360;9.974;2023-06-26T11:50:15;84397.75;;;-145.17;44.87
32759;BME280;19125;52.360;9.974;2023-06-26T11:52:42;84377.91;;;-145.17;44.43
32759;BME280;19125;52.360;9.974;2023-06-26T11:55:08;84405.69;;;-145.17;44.41
32759;BME280;19125;52.360;9.974;2023-06-26T11:57:35;84421.53;;;-145.17;44.58
32759;BME280;19125;52.360;9.974;2023-06-26T12:00:14;84294.59;;;-145.17;44.17
32759;BME280;19125;52.360;9.974;2023-06-26T12:02:40;84229.16;;;-145.17;43.32
32759;BME280;19125;52.360;9.974;2023-06-26T12:05:06;84179.56;;;-145.17;42.54
32759;BME280;19125;52.360;9.974;2023-06-26T12:07:32;84088.31;;;-145.17;41.21
32759;BME280;19125;52.360;9.974;2023-06-26T12:09:58;84098.25;;;-145.17;40.76
32759;BME280;19125;52.360;9.974;2023-06-26T12:12:24;84090.31;;;-145.17;40.33
32759;BME280;19125;52.360;9.974;2023-06-26T12:14:51;84100.22;;;-145.17;40.25
32759;BME280;19125;52.360;9.974;2023-06-26T12:17:17;84106.19;;;-145.17;40.20
32759;BME280;19125;52.360;9.974;2023-06-26T12:19:45;84128.00;;;-145.17;40.22
32759;BME280;19125;52.360;9.974;2023-06-26T12:22:13;84151.78;;;-145.17;40.46
32759;BME280;19125;52.360;9.974;2023-06-26T12:24:39;84098.25;;;-145.17;39.11
32759;BME280;19125;52.360;9.974;2023-06-26T12:27:13;84056.59;;;-145.17;38.13
32759;BME280;19125;52.360;9.974;2023-06-26T12:29:40;84090.31;;;-145.17;36.67
32759;BME280;19125;52.360;9.974;2023-06-26T12:32:10;84042.72;;;-145.17;35.50
32759;BME280;19125;52.360;9.974;2023-06-26T12:34:37;84060.56;;;-145.17;35.04
32759;BME280;19125;52.360;9.974;2023-06-26T12:39:45;83909.84;;;-145.17;33.33
32759;BME280;19125;52.360;9.974;2023-06-26T12:42:17;83947.50;;;-145.17;33.33
32759;BME280;19125;52.360;9.974;2023-06-26T12:44:43;83901.91;;;-145.17;33.57
32759;BME280;19125;52.360;9.974;2023-06-26T12:47:11;83842.41;;;-145.17;33.37
32759;BME280;19125;52.360;9.974;2023-06-26T12:49:41;83818.59;;;-145.17;33.49
32759;BME280;19125;52.360;9.974;2023-06-26T12:52:09;83834.47;;;-145.17;33.53
32759;BME280;19125;52.360;9.974;2023-06-26T12:54:36;83846.38;;;-145.17;33.79
32759;BME280;19125;52.360;9.974;2023-06-26T12:57:01;83774.97;;;-145.17;33.73